createdAt,value
2019-03-10T00:00:29.809Z,7.50
2019-03-10T00:02:58.262Z,7.50
2019-03-10T00:05:26.764Z,7.50
2019-03-10T00:07:55.382Z,7.40
2019-03-10T00:10:23.897Z,7.40
2019-03-10T00:12:52.338Z,7.30
2019-03-10T00:15:21.039Z,7.30
2019-03-10T00:17:49.471Z,7.30
2019-03-10T00:20:18.151Z,7.30
2019-03-10T00:22:46.705Z,7.20
2019-03-10T00:25:15.277Z,7.20
2019-03-10T00:27:43.724Z,7.20
2019-03-10T00:30:14.341Z,7.10
2019-03-10T00:32:42.912Z,7.10
2019-03-10T00:35:11.595Z,7.10
2019-03-10T00:37:40.310Z,7.00
2019-03-10T00:40:34.633Z,7.00
2019-03-10T00:43:31.436Z,7.00
2019-03-10T00:46:37.811Z,6.90
2019-03-10T00:49:14.889Z,6.90
2019-03-10T00:52:23.547Z,6.90
2019-03-10T00:54:52.022Z,6.80
2019-03-10T00:57:20.460Z,6.80
2019-03-10T00:59:48.930Z,6.80
2019-03-10T01:02:17.652Z,6.80
2019-03-10T01:04:46.097Z,6.80
2019-03-10T01:07:14.896Z,6.70
2019-03-10T01:09:43.439Z,6.70
2019-03-10T01:12:12.017Z,6.70
2019-03-10T01:14:40.524Z,6.60
2019-03-10T01:17:09.903Z,6.60
2019-03-10T01:22:28.744Z,6.70
2019-03-10T01:24:57.186Z,6.70
2019-03-10T01:27:25.638Z,6.70
2019-03-10T01:29:54.101Z,6.60
2019-03-10T01:33:07.308Z,6.70
2019-03-10T01:35:35.904Z,6.60
2019-03-10T01:38:04.350Z,6.70
2019-03-10T01:40:32.783Z,6.60
2019-03-10T01:43:01.264Z,6.60
2019-03-10T01:45:29.723Z,6.60
2019-03-10T01:47:59.352Z,6.60
2019-03-10T01:50:28.041Z,6.60
2019-03-10T01:52:56.561Z,6.50
2019-03-10T01:55:25.016Z,6.30
2019-03-10T01:57:53.553Z,6.40
2019-03-10T02:00:22.135Z,6.30
2019-03-10T02:02:50.604Z,6.30
2019-03-10T02:05:19.080Z,6.30
2019-03-10T02:07:47.524Z,6.30
2019-03-10T02:10:16.027Z,6.20
2019-03-10T02:12:44.575Z,6.20
2019-03-10T02:15:15.159Z,6.30
2019-03-10T02:17:43.620Z,6.20
2019-03-10T02:20:14.920Z,6.10
2019-03-10T02:22:43.363Z,6.10
2019-03-10T02:25:11.981Z,6.10
2019-03-10T02:27:40.490Z,6.10
2019-03-10T02:30:12.127Z,6.10
2019-03-10T02:32:40.583Z,6.10
2019-03-10T02:35:09.181Z,6.10
2019-03-10T02:37:39.924Z,6.10
2019-03-10T02:40:29.248Z,6.10
2019-03-10T02:42:57.771Z,6.10
2019-03-10T02:45:26.304Z,6.00
2019-03-10T02:47:54.803Z,6.00
2019-03-10T02:50:23.331Z,6.00
2019-03-10T02:52:51.776Z,6.10
2019-03-10T02:55:20.245Z,6.00
2019-03-10T02:58:08.136Z,6.00
2019-03-10T03:00:37.484Z,6.00
2019-03-10T03:03:06.014Z,6.00
2019-03-10T03:05:34.516Z,6.00
2019-03-10T03:08:03.082Z,6.00
2019-03-10T03:10:31.585Z,6.00
2019-03-10T03:13:00.016Z,6.00
2019-03-10T03:15:28.506Z,6.00
2019-03-10T03:17:57.094Z,6.00
2019-03-10T03:20:25.791Z,6.10
2019-03-10T03:22:54.275Z,6.10
2019-03-10T03:25:42.053Z,6.00
2019-03-10T03:28:10.793Z,6.10
2019-03-10T03:30:39.284Z,6.00
2019-03-10T03:33:07.725Z,6.10
2019-03-10T03:36:10.392Z,6.10
2019-03-10T03:38:42.083Z,6.00
2019-03-10T03:41:31.420Z,6.00
2019-03-10T03:43:59.868Z,6.10
2019-03-10T03:46:28.325Z,6.10
2019-03-10T03:48:56.796Z,6.10
2019-03-10T03:51:25.232Z,6.00
2019-03-10T03:53:53.692Z,6.10
2019-03-10T03:56:22.225Z,6.00
2019-03-10T03:58:50.749Z,6.00
2019-03-10T04:04:11.092Z,6.00
2019-03-10T04:06:39.610Z,6.00
2019-03-10T04:09:08.997Z,6.10
2019-03-10T04:11:37.541Z,6.10
2019-03-10T04:14:06.054Z,6.00
2019-03-10T04:16:34.551Z,6.10
2019-03-10T04:19:03.012Z,6.10
2019-03-10T04:21:31.526Z,6.10
2019-03-10T04:23:59.963Z,6.20
2019-03-10T04:26:29.074Z,6.20
2019-03-10T04:28:57.518Z,6.20
2019-03-10T04:31:25.956Z,6.20
2019-03-10T04:33:54.483Z,6.20
2019-03-10T04:36:22.937Z,6.30
2019-03-10T04:38:51.383Z,6.40
2019-03-10T04:41:19.840Z,6.40
2019-03-10T04:43:48.291Z,6.40
2019-03-10T04:46:16.814Z,6.40
2019-03-10T04:48:45.304Z,6.40
2019-03-10T04:51:13.767Z,6.40
2019-03-10T04:53:42.208Z,6.40
2019-03-10T04:56:17.990Z,6.40
2019-03-10T04:58:51.100Z,6.50
2019-03-10T05:01:20.004Z,6.50
2019-03-10T05:03:48.614Z,6.50
2019-03-10T05:06:17.048Z,6.50
2019-03-10T05:08:45.491Z,6.50
2019-03-10T05:11:13.963Z,6.50
2019-03-10T05:13:42.396Z,6.50
2019-03-10T05:16:10.855Z,6.50
2019-03-10T05:18:39.323Z,6.50
2019-03-10T05:21:07.759Z,6.50
2019-03-10T05:23:38.464Z,6.50
2019-03-10T05:26:07.066Z,6.60
2019-03-10T05:28:38.047Z,6.60
2019-03-10T05:31:07.349Z,6.60
2019-03-10T05:33:35.815Z,6.60
2019-03-10T05:36:04.392Z,6.60
2019-03-10T05:38:32.837Z,6.60
2019-03-10T05:41:01.307Z,6.70
2019-03-10T05:43:29.757Z,6.70
2019-03-10T05:45:58.195Z,6.70
2019-03-10T05:48:46.002Z,6.70
2019-03-10T05:51:14.449Z,6.80
2019-03-10T05:53:42.988Z,6.80
2019-03-10T05:56:11.448Z,6.80
2019-03-10T05:58:39.964Z,6.80
2019-03-10T06:01:08.407Z,6.90
2019-03-10T06:03:36.889Z,6.90
2019-03-10T06:06:05.468Z,6.90
2019-03-10T06:08:33.987Z,6.90
2019-03-10T06:11:02.477Z,7.00
2019-03-10T06:13:30.948Z,7.00
2019-03-10T06:15:59.383Z,7.10
2019-03-10T06:18:27.939Z,7.10
2019-03-10T06:20:56.376Z,7.10
2019-03-10T06:23:24.873Z,7.20
2019-03-10T06:25:53.337Z,7.20
2019-03-10T06:28:21.783Z,7.20
2019-03-10T06:30:50.228Z,7.30
2019-03-10T06:33:18.699Z,7.40
2019-03-10T06:35:47.140Z,7.40
2019-03-10T06:38:15.593Z,7.50
2019-03-10T06:40:44.063Z,7.50
2019-03-10T06:43:12.504Z,7.60
2019-03-10T06:45:41.019Z,7.70
2019-03-10T06:48:09.491Z,7.70
2019-03-10T06:50:37.931Z,7.80
2019-03-10T06:53:06.383Z,7.80
2019-03-10T06:55:34.860Z,7.80
2019-03-10T06:58:03.312Z,7.80
2019-03-10T07:00:31.758Z,7.90
2019-03-10T07:03:00.224Z,8.00
2019-03-10T07:05:28.732Z,8.00
2019-03-10T07:07:57.188Z,8.10
2019-03-10T07:10:25.663Z,8.20
2019-03-10T07:12:54.179Z,8.40
2019-03-10T07:15:22.700Z,8.50
2019-03-10T07:17:51.304Z,8.70
2019-03-10T07:20:22.603Z,8.80
2019-03-10T07:22:51.051Z,9.00
2019-03-10T07:25:19.526Z,9.20
2019-03-10T07:27:55.351Z,9.40
2019-03-10T07:30:31.364Z,9.50
2019-03-10T07:33:07.309Z,9.70
2019-03-10T07:35:40.205Z,9.80
2019-03-10T07:38:10.283Z,9.90
2019-03-10T07:40:40.365Z,9.90
2019-03-10T07:43:13.191Z,10.00
2019-03-10T07:45:43.285Z,10.00
2019-03-10T07:48:13.368Z,10.10
2019-03-10T07:50:43.479Z,10.00
2019-03-10T07:53:16.428Z,10.00
2019-03-10T07:55:58.375Z,10.00
2019-03-10T08:01:26.376Z,10.00
2019-03-10T08:03:56.461Z,10.10
2019-03-10T08:06:32.400Z,10.10
2019-03-10T08:09:02.483Z,10.00
2019-03-10T08:11:32.584Z,10.00
2019-03-10T08:14:19.418Z,10.00
2019-03-10T08:16:49.508Z,10.00
2019-03-10T08:19:19.598Z,9.90
2019-03-10T08:21:49.703Z,9.90
2019-03-10T08:24:19.787Z,9.90
2019-03-10T08:27:01.622Z,9.90
2019-03-10T08:29:34.658Z,9.90
2019-03-10T08:32:10.838Z,9.90
2019-03-10T08:34:40.914Z,9.90
2019-03-10T08:37:23.156Z,10.00
2019-03-10T08:39:59.249Z,10.10
2019-03-10T08:42:41.381Z,10.00
2019-03-10T08:48:28.271Z,10.10
2019-03-10T08:50:58.367Z,10.20
2019-03-10T08:53:34.215Z,10.20
2019-03-10T08:56:06.804Z,10.10
2019-03-10T08:58:42.389Z,10.00
2019-03-10T09:01:15.380Z,9.90
2019-03-10T09:03:51.240Z,9.80
2019-03-10T09:06:21.428Z,9.80
2019-03-10T09:09:09.625Z,9.90
2019-03-10T09:12:14.496Z,9.90
2019-03-10T09:14:50.208Z,9.60
2019-03-10T09:17:36.510Z,9.60
2019-03-10T09:20:08.061Z,9.60
2019-03-10T09:22:53.611Z,9.40
2019-03-10T09:25:39.892Z,9.30
2019-03-10T09:28:12.808Z,9.30
2019-03-10T09:33:24.196Z,9.00
2019-03-10T09:36:11.817Z,9.10
2019-03-10T09:38:44.888Z,9.10
2019-03-10T09:41:27.240Z,9.10
2019-03-10T09:44:19.072Z,9.10
2019-03-10T09:50:00.277Z,9.00
2019-03-10T09:52:36.095Z,9.00
2019-03-10T09:55:22.370Z,9.20
2019-03-10T09:58:07.325Z,9.00
2019-03-10T10:03:33.455Z,9.00
2019-03-10T10:09:03.925Z,9.00
2019-03-10T10:11:34.016Z,9.00
2019-03-10T10:14:04.099Z,8.90
2019-03-10T10:16:36.940Z,9.00
2019-03-10T10:19:07.039Z,9.10
2019-03-10T10:21:39.872Z,9.00
2019-03-10T10:24:12.619Z,8.90
2019-03-10T10:27:14.469Z,8.90
2019-03-10T10:29:50.648Z,8.70
2019-03-10T10:32:26.478Z,8.80
2019-03-10T10:35:12.820Z,8.70
2019-03-10T10:37:55.279Z,9.10
2019-03-10T10:40:41.788Z,9.10
2019-03-10T10:46:19.050Z,9.50
2019-03-10T10:48:51.852Z,9.30
2019-03-10T10:54:19.932Z,9.60
2019-03-10T10:59:37.568Z,9.70
2019-03-10T11:04:51.944Z,10.70
2019-03-10T11:07:40.087Z,10.30
2019-03-10T11:10:18.191Z,10.10
2019-03-10T11:12:54.171Z,10.30
2019-03-10T11:15:40.902Z,9.80
2019-03-10T11:18:11.007Z,9.70
2019-03-10T11:20:41.108Z,9.70
2019-03-10T11:23:30.557Z,10.20
2019-03-10T11:26:00.629Z,9.90
2019-03-10T11:28:33.611Z,10.20
2019-03-10T11:31:03.720Z,10.40
2019-03-10T11:33:39.668Z,9.70
2019-03-10T11:36:26.316Z,9.40
2019-03-10T11:42:17.824Z,8.70
2019-03-10T11:47:51.237Z,9.50
2019-03-10T11:50:21.400Z,9.70
2019-03-10T11:52:57.079Z,9.40
2019-03-10T11:55:27.345Z,9.50
2019-03-10T11:57:57.675Z,9.50
2019-03-10T12:01:11.426Z,9.60
2019-03-10T12:03:50.461Z,9.50
2019-03-10T12:06:20.728Z,8.90
2019-03-10T12:08:50.885Z,8.80
2019-03-10T12:11:19.338Z,9.10
2019-03-10T12:13:47.891Z,8.90
2019-03-10T12:16:16.400Z,8.80
2019-03-10T12:18:44.847Z,8.90
2019-03-10T12:21:13.308Z,9.00
2019-03-10T12:23:41.756Z,9.30
2019-03-10T12:26:10.274Z,10.10
2019-03-10T12:28:38.755Z,10.30
2019-03-10T12:31:07.262Z,10.30
2019-03-10T12:33:35.710Z,10.90
2019-03-10T12:36:04.335Z,10.30
2019-03-10T12:38:32.785Z,10.30
2019-03-10T12:41:01.234Z,10.20
2019-03-10T12:43:29.804Z,10.20
2019-03-10T12:45:58.281Z,10.10
2019-03-10T12:48:26.725Z,9.70
2019-03-10T12:50:55.453Z,9.10
2019-03-10T12:53:24.002Z,9.30
2019-03-10T12:55:52.441Z,10.10
2019-03-10T12:58:20.910Z,10.20
2019-03-10T13:00:49.423Z,10.10
2019-03-10T13:03:17.939Z,10.20
2019-03-10T13:05:46.552Z,10.30
2019-03-10T13:08:14.986Z,10.30
2019-03-10T13:10:43.433Z,11.00
2019-03-10T13:13:11.995Z,10.80
2019-03-10T13:15:40.450Z,10.90
2019-03-10T13:18:09.133Z,12.10
2019-03-10T13:20:37.681Z,12.30
2019-03-10T13:23:06.268Z,12.40
2019-03-10T13:25:34.888Z,11.70
2019-03-10T13:28:03.514Z,12.30
2019-03-10T13:30:31.956Z,12.40
2019-03-10T13:33:00.395Z,12.70
2019-03-10T13:35:28.946Z,11.60
2019-03-10T13:37:57.472Z,11.30
2019-03-10T13:40:25.912Z,10.90
2019-03-10T13:42:54.496Z,10.70
2019-03-10T13:45:23.013Z,10.60
2019-03-10T13:47:51.463Z,10.40
2019-03-10T13:50:20.012Z,10.30
2019-03-10T13:52:53.796Z,10.50
2019-03-10T13:55:22.313Z,10.60
2019-03-10T13:57:50.784Z,10.60
2019-03-10T14:00:22.505Z,10.50
2019-03-10T14:02:51.022Z,10.50
2019-03-10T14:05:19.660Z,10.50
2019-03-10T14:07:48.105Z,10.40
2019-03-10T14:10:16.625Z,10.50
2019-03-10T14:12:45.196Z,10.40
2019-03-10T14:15:15.997Z,10.30
2019-03-10T14:17:44.512Z,10.20
2019-03-10T14:20:14.732Z,10.20
2019-03-10T14:22:43.413Z,10.20
2019-03-10T14:25:13.311Z,10.20
2019-03-10T14:27:42.764Z,10.30
2019-03-10T14:30:16.727Z,10.00
2019-03-10T14:32:45.175Z,9.90
2019-03-10T14:35:14.498Z,10.00
2019-03-10T14:37:42.984Z,10.10
2019-03-10T14:40:14.132Z,10.20
2019-03-10T14:43:01.993Z,10.20
2019-03-10T14:45:36.358Z,10.30
2019-03-10T14:48:04.979Z,10.40
2019-03-10T14:50:33.683Z,10.30
2019-03-10T14:53:04.530Z,10.30
2019-03-10T14:55:32.360Z,10.50
2019-03-10T14:58:00.904Z,10.50
2019-03-10T15:00:29.985Z,10.40
2019-03-10T15:02:58.562Z,10.50
2019-03-10T15:05:27.095Z,10.60
2019-03-10T15:07:55.606Z,10.60
2019-03-10T15:10:24.223Z,10.30
2019-03-10T15:12:52.691Z,10.10
2019-03-10T15:15:23.126Z,10.00
2019-03-10T15:17:51.986Z,10.00
2019-03-10T15:20:21.741Z,10.10
2019-03-10T15:22:50.571Z,10.20
2019-03-10T15:25:20.351Z,10.40
2019-03-10T15:27:49.103Z,10.20
2019-03-10T15:30:19.953Z,9.90
2019-03-10T15:32:49.291Z,9.90
2019-03-10T15:35:17.827Z,9.70
2019-03-10T15:37:46.269Z,9.60
2019-03-10T15:40:18.593Z,9.90
2019-03-10T15:42:47.199Z,11.50
2019-03-10T15:45:17.757Z,12.50
2019-03-10T15:47:46.410Z,11.50
2019-03-10T15:50:28.807Z,12.40
2019-03-10T15:52:57.249Z,11.90
2019-03-10T15:55:25.757Z,12.20
2019-03-10T15:57:54.233Z,12.10
2019-03-10T16:00:24.234Z,12.60
2019-03-10T16:02:52.862Z,12.60
2019-03-10T16:05:21.636Z,12.70
2019-03-10T16:07:50.148Z,13.00
2019-03-10T16:10:18.876Z,12.40
2019-03-10T16:12:49.414Z,13.40
2019-03-10T16:15:19.188Z,12.60
2019-03-10T16:17:47.773Z,12.80
2019-03-10T16:20:16.541Z,13.00
2019-03-10T16:22:45.168Z,12.80
2019-03-10T16:25:20.760Z,12.50
2019-03-10T16:27:50.033Z,12.00
2019-03-10T16:30:21.803Z,10.80
2019-03-10T16:32:50.290Z,10.30
2019-03-10T16:35:18.861Z,9.80
2019-03-10T16:37:47.367Z,9.80
2019-03-10T16:40:17.012Z,9.60
2019-03-10T16:42:45.608Z,9.50
2019-03-10T16:45:27.078Z,9.50
2019-03-10T16:47:57.544Z,9.50
2019-03-10T16:50:50.066Z,9.50
2019-03-10T16:53:19.555Z,9.50
2019-03-10T16:55:47.997Z,9.50
2019-03-10T16:58:16.459Z,9.50
2019-03-10T17:00:44.949Z,9.40
2019-03-10T17:03:13.459Z,9.40
2019-03-10T17:05:41.981Z,9.30
2019-03-10T17:08:10.547Z,9.20
2019-03-10T17:10:38.988Z,9.20
2019-03-10T17:13:07.573Z,9.10
2019-03-10T17:15:36.788Z,9.00
2019-03-10T17:18:05.323Z,8.90
2019-03-10T17:20:33.880Z,8.80
2019-03-10T17:23:02.332Z,8.80
2019-03-10T17:25:30.790Z,8.70
2019-03-10T17:27:59.252Z,8.60
2019-03-10T17:30:27.755Z,8.50
2019-03-10T17:32:56.195Z,8.30
2019-03-10T17:35:24.733Z,8.30
2019-03-10T17:37:53.173Z,8.20
2019-03-10T17:40:23.926Z,8.20
2019-03-10T17:42:52.850Z,8.10
2019-03-10T17:45:22.604Z,8.10
2019-03-10T17:47:51.395Z,8.10
2019-03-10T17:50:20.269Z,8.10
2019-03-10T17:52:49.739Z,8.10
2019-03-10T17:55:39.079Z,8.10
2019-03-10T17:58:07.614Z,8.10
2019-03-10T18:00:37.425Z,8.00
2019-03-10T18:03:06.223Z,8.00
2019-03-10T18:05:34.681Z,8.00
2019-03-10T18:08:03.185Z,8.00
2019-03-10T18:10:31.642Z,7.90
2019-03-10T18:13:00.094Z,7.90
2019-03-10T18:15:28.530Z,7.80
2019-03-10T18:17:57.122Z,7.90
2019-03-10T18:20:25.638Z,7.90
2019-03-10T18:22:54.207Z,8.00
2019-03-10T18:25:22.747Z,8.00
2019-03-10T18:27:51.186Z,7.90
2019-03-10T18:30:21.948Z,7.50
2019-03-10T18:32:50.462Z,7.00
2019-03-10T18:35:21.881Z,6.70
2019-03-10T18:37:50.332Z,6.40
2019-03-10T18:40:45.364Z,5.70
2019-03-10T18:43:13.812Z,5.40
2019-03-10T18:45:42.332Z,5.30
2019-03-10T18:48:10.880Z,5.10
2019-03-10T18:50:39.401Z,4.80
2019-03-10T18:53:07.915Z,4.60
2019-03-10T18:55:36.451Z,4.60
2019-03-10T18:58:04.949Z,4.50
2019-03-10T19:00:33.470Z,4.30
2019-03-10T19:03:01.927Z,3.90
2019-03-10T19:05:30.380Z,3.50
2019-03-10T19:07:58.824Z,3.40
2019-03-10T19:10:27.361Z,3.20
2019-03-10T19:12:55.812Z,3.30
2019-03-10T19:15:25.722Z,3.40
2019-03-10T19:17:54.363Z,3.40
2019-03-10T19:20:22.878Z,3.40
2019-03-10T19:22:51.323Z,3.50
2019-03-10T19:25:19.856Z,3.60
2019-03-10T19:27:48.384Z,3.50
2019-03-10T19:30:21.628Z,3.60
2019-03-10T19:32:50.236Z,3.60
2019-03-10T19:35:18.832Z,3.60
2019-03-10T19:37:47.405Z,3.60
2019-03-10T19:40:17.214Z,3.70
2019-03-10T19:42:45.799Z,3.70
2019-03-10T19:45:18.693Z,3.60
2019-03-10T19:47:47.241Z,3.60
2019-03-10T19:50:17.123Z,3.60
2019-03-10T19:52:45.554Z,3.60
2019-03-10T19:55:15.354Z,3.60
2019-03-10T19:57:46.965Z,3.60
2019-03-10T20:00:17.061Z,3.60
2019-03-10T20:02:45.875Z,3.60
2019-03-10T20:05:15.343Z,3.60
2019-03-10T20:07:44.676Z,3.60
2019-03-10T20:10:20.653Z,3.60
2019-03-10T20:12:49.109Z,3.60
2019-03-10T20:15:38.595Z,3.60
2019-03-10T20:18:07.117Z,3.60
2019-03-10T20:20:35.581Z,3.70
2019-03-10T20:23:04.126Z,3.70
2019-03-10T20:25:37.814Z,3.80
2019-03-10T20:28:06.288Z,3.80
2019-03-10T20:30:34.845Z,3.90
2019-03-10T20:33:03.303Z,3.90
2019-03-10T20:35:31.817Z,4.00
2019-03-10T20:38:00.376Z,4.10
2019-03-10T20:40:29.327Z,4.10
2019-03-10T20:42:57.986Z,4.20
2019-03-10T20:45:26.643Z,4.30
2019-03-10T20:47:56.788Z,4.30
2019-03-10T20:50:27.586Z,4.30
2019-03-10T20:52:55.835Z,4.30
2019-03-10T20:55:24.361Z,4.20
2019-03-10T20:57:52.817Z,4.30
2019-03-10T21:00:26.931Z,4.30
2019-03-10T21:02:55.598Z,4.30
2019-03-10T21:05:24.315Z,4.30
2019-03-10T21:07:52.893Z,4.30
2019-03-10T21:10:30.456Z,4.40
2019-03-10T21:12:59.133Z,4.40
2019-03-10T21:15:27.757Z,4.40
2019-03-10T21:17:56.232Z,4.30
2019-03-10T21:20:25.634Z,4.30
2019-03-10T21:22:59.913Z,4.40
2019-03-10T21:25:30.772Z,4.30
2019-03-10T21:27:59.352Z,4.30
2019-03-10T21:30:31.739Z,4.30
2019-03-10T21:33:00.292Z,4.30
2019-03-10T21:35:28.736Z,4.30
2019-03-10T21:37:57.265Z,4.30
2019-03-10T21:40:33.617Z,4.20
2019-03-10T21:43:02.140Z,4.20
2019-03-10T21:45:30.812Z,4.20
2019-03-10T21:47:59.373Z,4.30
2019-03-10T21:50:27.841Z,4.20
2019-03-10T21:52:56.280Z,4.20
2019-03-10T21:55:24.874Z,4.30
2019-03-10T21:57:53.312Z,4.20
2019-03-10T22:00:21.743Z,4.20
2019-03-10T22:02:50.292Z,4.30
2019-03-10T22:05:18.896Z,4.30
2019-03-10T22:07:47.472Z,4.30
2019-03-10T22:10:26.167Z,4.40
2019-03-10T22:12:47.891Z,4.40
2019-03-10T22:18:13.333Z,4.40
2019-03-10T22:20:41.770Z,4.50
2019-03-10T22:23:10.226Z,4.40
2019-03-10T22:25:38.765Z,4.50
2019-03-10T22:28:07.217Z,4.40
2019-03-10T22:30:35.725Z,4.50
2019-03-10T22:33:04.239Z,4.50
2019-03-10T22:35:32.681Z,4.40
2019-03-10T22:38:01.134Z,4.40
2019-03-10T22:40:29.608Z,4.50
2019-03-10T22:42:58.047Z,4.40
2019-03-10T22:45:26.561Z,4.40
2019-03-10T22:47:55.102Z,4.40
2019-03-10T22:50:23.544Z,4.40
2019-03-10T22:52:51.991Z,4.40
2019-03-10T22:55:20.553Z,4.40
2019-03-10T22:57:48.990Z,4.50
2019-03-10T23:00:43.005Z,4.50
2019-03-10T23:03:11.728Z,4.60
2019-03-10T23:05:41.651Z,4.50
2019-03-10T23:08:31.247Z,4.50
2019-03-10T23:10:59.760Z,4.60
2019-03-10T23:13:28.304Z,4.60
2019-03-10T23:15:56.860Z,4.50
2019-03-10T23:18:25.979Z,4.50
2019-03-10T23:20:54.556Z,4.50
2019-03-10T23:23:23.024Z,4.50
2019-03-10T23:25:51.728Z,4.50
2019-03-10T23:28:20.175Z,4.40
2019-03-10T23:30:50.130Z,4.40
2019-03-10T23:33:18.588Z,4.30
2019-03-10T23:35:47.048Z,4.40
2019-03-10T23:38:15.524Z,4.40
2019-03-10T23:40:43.963Z,4.30
2019-03-10T23:43:12.413Z,4.30
2019-03-10T23:45:40.888Z,4.40
2019-03-10T23:48:09.329Z,4.30
2019-03-10T23:50:37.776Z,4.30
2019-03-10T23:53:06.236Z,4.20
2019-03-10T23:55:34.724Z,4.20
2019-03-10T23:58:03.166Z,4.20
